Time;durP1;ratioP1;P1;durP2;ratioP2;P2;SDS_P1;SDS_P2;PMS_P1;PMS_P2;Temp;Humidity;BMP_temperature;BMP_pressure;BME280_temperature;BME280_humidity;BME280_pressure;Samples;Min_cycle;Max_cycle;Signal;HPM_P1;HPM_P2
2022/01/28 05:32:51;;;;;;;;;37.75;31.25;;;;;9.07;75.39;103169.25;5055257;27;45430;-72
2022/01/28 05:35:16;;;;;;;;;29.50;23.50;;;;;9.13;75.48;103181.72;5054970;28;45369;-72
2022/01/28 05:37:41;;;;;;;;;31.25;26.75;;;;;9.14;74.67;103192.44;5055612;28;45371;-73
2022/01/28 05:40:07;;;;;;;;;30.50;27.00;;;;;9.14;74.59;103189.75;5037247;28;45403;-72
2022/01/28 05:42:33;;;;;;;;;39.50;29.75;;;;;8.86;74.57;103129.13;5055562;28;45326;-73
2022/01/28 05:44:59;;;;;;;;;30.25;25.50;;;;;9.13;74.36;103181.72;5055337;28;45304;-73
2022/01/28 05:47:25;;;;;;;;;27.50;26.00;;;;;9.05;74.18;103168.34;5036084;28;46034;-73
2022/01/28 05:49:51;;;;;;;;;33.25;26.75;;;;;9.18;74.16;103196.00;5048317;28;45366;-73
2022/01/28 05:52:16;;;;;;;;;26.75;22.75;;;;;9.14;74.17;103183.50;5037211;28;45568;-73
2022/01/28 05:54:42;;;;;;;;;25.00;17.00;;;;;9.12;73.82;103188.88;5055270;28;45548;-72
2022/01/28 05:57:07;;;;;;;;;27.50;24.00;;;;;9.21;73.80;103204.03;5054815;28;45252;-73
2022/01/28 05:59:32;;;;;;;;;26.75;24.25;;;;;9.15;73.35;103202.25;5055549;28;45385;-73
2022/01/28 06:01:58;;;;;;;;;35.50;29.00;;;;;9.19;72.68;103219.19;5054838;28;45545;-72
2022/01/28 06:04:23;;;;;;;;;29.50;25.50;;;;;9.17;73.44;103213.84;5054943;28;45562;-72
2022/01/28 06:06:49;;;;;;;;;37.50;30.50;;;;;9.21;73.17;103231.69;5055132;28;45349;-72
2022/01/28 06:09:14;;;;;;;;;28.50;26.50;;;;;9.18;73.08;103231.69;5055066;28;45365;-72
2022/01/28 06:11:40;;;;;;;;;36.00;30.00;;;;;9.16;72.63;103235.25;5055145;28;45362;-74
2022/01/28 06:14:06;;;;;;;;;31.00;28.75;;;;;9.11;72.85;103233.47;5055732;28;45549;-73
2022/01/28 06:16:32;;;;;;;;;32.25;27.00;;;;;9.11;73.00;103227.22;5054661;28;45920;-75
2022/01/28 06:18:57;;;;;;;;;35.75;29.25;;;;;9.06;72.79;103221.00;5055179;28;45248;-73
2022/01/28 06:21:22;;;;;;;;;34.75;28.75;;;;;9.08;72.94;103225.47;5054855;28;45380;-73
2022/01/28 06:23:48;;;;;;;;;33.00;28.75;;;;;9.08;73.19;103228.13;5054807;28;45604;-71
2022/01/28 06:26:13;;;;;;;;;33.25;27.50;;;;;9.07;72.87;103223.66;5036470;28;48182;-72
2022/01/28 06:28:39;;;;;;;;;37.75;27.75;;;;;9.07;72.71;103229.03;5044888;28;45284;-71
2022/01/28 06:31:04;;;;;;;;;34.25;26.00;;;;;9.02;73.25;103230.78;5040375;28;45502;-72
2022/01/28 06:33:29;;;;;;;;;27.75;24.00;;;;;9.02;72.94;103220.09;5054545;28;45573;-72
2022/01/28 06:36:00;;;;;;;;;30.00;24.00;;;;;8.83;73.09;103194.25;5054948;28;46497;-79
2022/01/28 06:38:29;;;;;;;;;18.00;18.00;;;;;8.92;73.09;103231.69;5057991;28;45374;-74
2022/01/28 06:40:54;;;;;;;;;32.00;26.75;;;;;8.91;73.41;103231.69;5051969;28;45508;-75
2022/01/28 06:43:19;;;;;;;;;35.25;33.00;;;;;8.85;72.68;103229.00;5054140;28;45561;-78
2022/01/28 06:45:45;;;;;;;;;25.25;23.00;;;;;8.82;72.70;103218.31;5049557;28;45473;-77
2022/01/28 06:48:11;;;;;;;;;35.50;27.50;;;;;8.84;73.35;103219.22;5017391;28;45384;-78
2022/01/28 06:50:38;;;;;;;;;33.75;27.50;;;;;8.59;73.48;103187.06;5053871;28;45331;-77
2022/01/28 06:53:04;;;;;;;;;32.25;21.50;;;;;8.75;73.44;103220.09;5054170;28;45435;-78
2022/01/28 06:55:29;;;;;;;;;25.50;16.75;;;;;8.68;73.08;103205.78;5054040;28;46122;-74
2022/01/28 06:57:56;;;;;;;;;30.25;24.50;;;;;8.96;72.82;103243.28;5054348;28;45340;-76
2022/01/28 07:00:22;;;;;;;;;23.50;22.00;;;;;8.84;72.60;103229.91;5054228;28;45422;-76
2022/01/28 07:02:48;;;;;;;;;36.25;31.25;;;;;8.84;72.74;103240.59;5054041;28;45446;-74
2022/01/28 07:05:14;;;;;;;;;26.00;24.25;;;;;8.79;72.78;103245.94;5054496;28;46184;-75
2022/01/28 07:07:39;;;;;;;;;34.75;28.75;;;;;8.52;72.58;103216.47;5058019;28;45326;-77
2022/01/28 07:10:05;;;;;;;;;37.75;32.00;;;;;8.69;73.06;103253.03;5058031;28;45275;-73
2022/01/28 07:12:30;;;;;;;;;35.50;27.75;;;;;8.61;72.91;103241.44;5047357;28;45550;-72
2022/01/28 07:14:56;;;;;;;;;44.00;35.00;;;;;8.64;73.34;103244.13;5036519;28;45460;-73
2022/01/28 07:17:21;;;;;;;;;32.75;28.25;;;;;8.70;73.36;103251.28;5049938;28;45541;-72
2022/01/28 07:19:47;;;;;;;;;34.00;29.50;;;;;8.72;72.67;103242.38;5034673;28;45501;-71
2022/01/28 07:22:13;;;;;;;;;36.50;26.50;;;;;8.78;72.43;103268.22;5058857;28;45284;-68
2022/01/28 07:24:38;;;;;;;;;35.50;30.25;;;;;8.79;71.80;103263.75;5053606;28;45819;-70
2022/01/28 07:27:04;;;;;;;;;35.50;28.50;;;;;8.68;71.35;103247.69;5057761;28;45480;-77
2022/01/28 07:29:32;;;;;;;;;40.75;33.00;;;;;8.72;71.43;103261.09;5046022;28;45506;-71
2022/01/28 07:31:58;;;;;;;;;40.50;30.00;;;;;8.75;71.59;103270.91;5056790;28;45486;-72
2022/01/28 07:34:24;;;;;;;;;37.75;32.25;;;;;8.77;71.54;103277.13;5049543;28;45574;-71
2022/01/28 07:36:49;;;;;;;;;33.50;27.75;;;;;8.77;71.80;103279.81;5049787;28;45337;-70
2022/01/28 07:39:14;;;;;;;;;35.25;26.75;;;;;8.74;71.56;103269.13;5051137;28;45541;-71
2022/01/28 07:41:40;;;;;;;;;34.25;29.75;;;;;8.81;71.30;103294.09;5049741;28;45330;-70
2022/01/28 07:44:06;;;;;;;;;37.75;29.25;;;;;8.79;71.48;103291.41;5034245;28;45903;-70
2022/01/28 07:46:32;;;;;;;;;34.50;28.00;;;;;8.85;71.17;103298.53;5035972;28;45247;-69
2022/01/28 07:48:57;;;;;;;;;42.00;30.25;;;;;8.86;71.21;103294.97;5037582;28;45927;-71
2022/01/28 07:51:23;;;;;;;;;28.00;26.75;;;;;8.91;71.12;103295.91;5033902;28;45779;-69
2022/01/28 07:53:49;;;;;;;;;30.75;23.75;;;;;8.87;71.31;103296.75;5037656;28;46284;-69
2022/01/28 07:56:15;;;;;;;;;33.75;29.25;;;;;8.89;71.08;103306.59;5047255;28;45497;-73
2022/01/28 07:58:40;;;;;;;;;37.75;33.50;;;;;8.83;71.49;103301.25;5032590;28;45561;-69
2022/01/28 08:01:06;;;;;;;;;40.75;34.25;;;;;8.79;71.28;103314.59;5040015;28;45542;-69
2022/01/28 08:03:32;;;;;;;;;37.00;29.75;;;;;8.80;71.36;103319.94;5040988;28;45383;-70
2022/01/28 08:05:57;;;;;;;;;30.00;25.50;;;;;8.82;71.54;103320.84;5038722;28;45364;-68
2022/01/28 08:08:23;;;;;;;;;37.75;29.50;;;;;8.87;71.23;103328.88;5055613;28;45249;-68
2022/01/28 08:10:49;;;;;;;;;40.50;30.50;;;;;8.79;71.18;103327.97;5036345;28;45840;-69
2022/01/28 08:13:15;;;;;;;;;34.50;28.25;;;;;8.80;71.23;103338.66;5042878;28;45492;-68
2022/01/28 08:15:41;;;;;;;;;38.50;34.50;;;;;8.80;71.56;103332.41;5036205;28;45387;-69
2022/01/28 08:18:08;;;;;;;;;40.25;30.50;;;;;8.77;71.57;103335.97;5054259;28;45399;-70
2022/01/28 08:20:33;;;;;;;;;47.00;35.75;;;;;8.70;70.76;103318.13;5042254;28;45545;-68
2022/01/28 08:23:00;;;;;;;;;39.50;32.00;;;;;8.78;71.22;103331.50;5055105;28;47012;-69
2022/01/28 08:25:28;;;;;;;;;34.75;26.25;;;;;8.73;71.21;103327.06;5044079;28;45525;-70
2022/01/28 08:27:54;;;;;;;;;35.25;29.00;;;;;8.79;71.14;103317.25;5038084;28;45545;-70
2022/01/28 08:30:22;;;;;;;;;39.50;27.25;;;;;8.87;71.33;103326.19;5035036;28;45526;-69
2022/01/28 08:32:49;;;;;;;;;32.00;29.25;;;;;8.95;71.16;103327.09;5048379;28;45564;-70
2022/01/28 08:35:15;;;;;;;;;41.00;35.50;;;;;8.99;70.87;103337.84;5035471;28;45530;-71
2022/01/28 08:37:41;;;;;;;;;37.50;30.25;;;;;9.03;70.76;103347.63;5036567;28;45484;-69
2022/01/28 08:40:09;;;;;;;;;35.00;24.75;;;;;8.98;69.87;103351.19;5041033;28;46561;-70
2022/01/28 08:42:35;;;;;;;;;35.50;30.75;;;;;8.94;70.32;103355.63;5025475;28;45637;-70
2022/01/28 08:45:00;;;;;;;;;33.25;27.25;;;;;8.89;70.21;103362.78;5034648;28;45576;-70
2022/01/28 08:47:26;;;;;;;;;37.25;29.00;;;;;8.89;70.37;103359.19;5035572;28;45326;-70
2022/01/28 08:49:52;;;;;;;;;46.50;33.50;;;;;8.89;70.63;103376.16;5038971;28;45375;-71
2022/01/28 08:52:18;;;;;;;;;20.75;13.25;;;;;8.83;69.96;103370.78;5028215;28;45384;-70
2022/01/28 08:54:44;;;;;;;;;39.00;30.00;;;;;8.86;70.65;103375.22;5055295;28;45224;-68
2022/01/28 08:57:09;;;;;;;;;37.00;30.75;;;;;8.91;69.94;103387.75;5055980;28;45415;-69
2022/01/28 08:59:35;;;;;;;;;33.00;27.50;;;;;8.81;70.38;103382.34;5050291;28;46745;-69
2022/01/28 09:02:01;;;;;;;;;41.25;34.75;;;;;8.72;70.18;103385.88;5027180;28;45988;-69
2022/01/28 09:04:26;;;;;;;;;31.00;27.75;;;;;8.78;70.41;103399.28;5036935;28;45412;-69
2022/01/28 09:06:52;;;;;;;;;37.75;27.50;;;;;8.82;70.90;103403.78;5054849;28;45430;-70
2022/01/28 09:09:20;;;;;;;;;31.50;26.00;;;;;8.83;69.53;103407.34;5055038;28;45504;-69
2022/01/28 09:14:23;;;;;;;;;32.00;24.75;;;;;8.84;69.95;103412.69;5055480;28;45544;-68
2022/01/28 09:16:49;;;;;;;;;24.75;24.25;;;;;8.79;69.36;103393.03;5037248;28;45343;-69
2022/01/28 09:19:14;;;;;;;;;40.50;27.00;;;;;8.81;69.67;103393.06;5055146;28;45438;-70
2022/01/28 09:21:40;;;;;;;;;30.75;26.50;;;;;8.82;69.40;103400.19;5043487;28;46052;-70
2022/01/28 09:24:06;;;;;;;;;26.75;23.75;;;;;8.73;69.62;103382.34;5054922;28;45433;-70
2022/01/28 09:26:31;;;;;;;;;23.75;21.00;;;;;8.83;69.58;103392.19;5054541;28;45529;-70
2022/01/28 09:28:58;;;;;;;;;33.75;28.75;;;;;8.94;69.30;103400.22;5042010;28;45422;-69
2022/01/28 09:31:23;;;;;;;;;30.25;24.25;;;;;8.94;69.80;103405.56;5042692;28;46061;-72
2022/01/28 09:33:49;;;;;;;;;27.00;23.00;;;;;8.88;69.54;103401.09;5055551;28;45387;-67
2022/01/28 09:36:15;;;;;;;;;30.75;27.25;;;;;8.88;69.54;103410.91;5054813;28;45835;-70
2022/01/28 09:38:40;;;;;;;;;29.50;23.25;;;;;8.83;69.29;103416.25;5054911;28;45513;-71
2022/01/28 09:41:08;;;;;;;;;37.25;24.25;;;;;8.71;69.84;103403.72;5054135;28;46546;-69
2022/01/28 09:43:34;;;;;;;;;33.25;23.25;;;;;8.72;69.56;103397.47;5053856;28;45410;-69
2022/01/28 09:46:02;;;;;;;;;26.75;22.75;;;;;8.78;69.62;103417.09;5035128;28;45414;-68
2022/01/28 09:48:27;;;;;;;;;32.50;23.75;;;;;8.79;69.17;103402.84;5036144;28;45521;-70
2022/01/28 09:50:57;;;;;;;;;24.75;20.75;;;;;8.77;69.13;103401.94;5055181;28;46196;-69
2022/01/28 09:53:23;;;;;;;;;28.50;18.75;;;;;8.75;69.35;103401.06;5049297;28;45509;-69
2022/01/28 09:55:50;;;;;;;;;19.50;19.50;;;;;8.81;70.37;103404.66;5043584;28;45377;-69
2022/01/28 09:58:15;;;;;;;;;26.00;21.25;;;;;8.65;70.19;103400.13;5054483;28;45521;-69
2022/01/28 10:00:42;;;;;;;;;33.75;24.75;;;;;8.70;70.61;103399.25;5053279;28;46606;-69
2022/01/28 10:03:10;;;;;;;;;27.25;24.00;;;;;8.81;70.25;103401.97;5036475;28;45564;-69
2022/01/28 10:05:38;;;;;;;;;27.75;22.25;;;;;8.83;70.13;103412.69;5054924;28;45402;-71
2022/01/28 10:08:13;;;;;;;;;23.50;22.00;;;;;8.80;70.34;103410.00;5053903;28;45391;-69
2022/01/28 10:10:49;;;;;;;;;20.00;17.00;;;;;8.81;70.37;103425.16;5054801;28;45429;-70
2022/01/28 10:16:10;;;;;;;;;26.75;21.25;;;;;8.95;69.37;103418.97;5053353;28;45497;-68
2022/01/28 10:18:41;;;;;;;;;28.75;21.50;;;;;8.93;69.54;103402.00;5054313;28;45517;-69
2022/01/28 10:21:23;;;;;;;;;26.00;18.50;;;;;8.97;69.11;103393.13;5054358;28;45297;-68
2022/01/28 10:24:05;;;;;;;;;29.00;22.75;;;;;9.21;67.84;103421.72;5054014;28;45327;-70
2022/01/28 10:26:39;;;;;;;;;23.25;16.25;;;;;9.26;67.47;103425.31;5048401;28;45566;-71
2022/01/28 10:29:32;;;;;;;;;22.25;18.00;;;;;9.28;67.37;103417.25;5006738;28;45602;-69
2022/01/28 10:32:00;;;;;;;;;28.50;17.75;;;;;9.41;67.30;103414.63;5031507;28;45436;-69
2022/01/28 10:34:39;;;;;;;;;16.50;13.75;;;;;9.56;66.70;103423.56;5053841;28;45461;-69
2022/01/28 10:37:10;;;;;;;;;27.50;21.25;;;;;9.53;67.03;103429.81;5051570;28;45414;-69
2022/01/28 10:39:53;;;;;;;;;25.25;19.75;;;;;9.49;67.06;103425.34;5053561;28;45549;-70
2022/01/28 10:42:33;;;;;;;;;33.50;27.75;;;;;9.50;66.74;103429.81;5051822;28;45460;-69
2022/01/28 10:45:02;;;;;;;;;27.00;21.75;;;;;9.54;67.10;103436.94;5053823;28;45415;-69
2022/01/28 10:47:42;;;;;;;;;19.50;16.25;;;;;9.44;67.30;103433.34;5034037;28;45288;-69
2022/01/28 10:50:38;;;;;;;;;24.00;18.00;;;;;9.39;67.18;103440.50;5035447;28;45435;-70
2022/01/28 10:53:11;;;;;;;;;27.50;21.75;;;;;9.40;66.81;103444.06;5027461;28;46146;-69
2022/01/28 10:55:57;;;;;;;;;31.50;21.25;;;;;9.34;66.95;103430.69;5028268;28;45493;-68
2022/01/28 10:58:28;;;;;;;;;29.00;20.25;;;;;9.45;67.07;103450.31;5036729;28;45530;-71
2022/01/28 11:01:01;;;;;;;;;21.50;17.00;;;;;9.46;67.09;103455.69;5040503;28;45600;-69
2022/01/28 11:03:27;;;;;;;;;24.75;18.75;;;;;9.44;66.53;103446.75;5042973;28;46621;-73
2022/01/28 11:05:59;;;;;;;;;29.75;23.75;;;;;9.42;67.05;103445.88;5053470;28;45257;-71
2022/01/28 11:08:30;;;;;;;;;26.00;22.50;;;;;9.24;67.63;103437.78;5046442;28;45385;-74
2022/01/28 11:10:57;;;;;;;;;26.50;24.75;;;;;9.29;67.81;103454.75;5035784;28;46216;-73
2022/01/28 11:13:22;;;;;;;;;26.25;21.00;;;;;9.20;67.97;103433.31;5048068;28;46461;-73
2022/01/28 11:15:48;;;;;;;;;32.00;22.75;;;;;9.23;68.05;103441.34;5053156;28;45358;-72
2022/01/28 11:18:14;;;;;;;;;22.50;18.50;;;;;9.17;68.39;103440.47;5033178;28;45398;-72
2022/01/28 11:21:02;;;;;;;;;37.75;27.25;;;;;9.27;68.16;103436.91;5046859;28;45413;-75
2022/01/28 11:23:51;;;;;;;;;25.25;21.00;;;;;9.29;67.98;103438.69;5032117;28;48192;-74
2022/01/28 11:26:22;;;;;;;;;28.25;23.25;;;;;9.29;68.40;103437.78;5053285;28;45446;-75
2022/01/28 11:29:02;;;;;;;;;30.50;21.75;;;;;9.22;68.05;103427.97;5041037;28;45336;-76
2022/01/28 11:31:39;;;;;;;;;25.75;22.00;;;;;9.19;68.36;103430.63;5042587;28;45462;-76
2022/01/28 11:34:19;;;;;;;;;27.75;22.75;;;;;9.18;68.37;103427.09;5039624;28;45486;-73
2022/01/28 11:36:44;;;;;;;;;30.00;26.00;;;;;9.19;68.71;103422.59;5034945;28;45467;-78
2022/01/28 11:39:42;;;;;;;;;26.75;23.00;;;;;9.25;68.03;103425.31;5041361;28;45609;-74
2022/01/28 11:42:24;;;;;;;;;32.50;25.50;;;;;9.17;68.02;103402.97;5036166;28;45459;-72
2022/01/28 11:44:55;;;;;;;;;22.75;17.25;;;;;9.16;67.57;103420.81;5045665;28;46408;-72
2022/01/28 11:47:20;;;;;;;;;29.00;25.50;;;;;9.24;67.97;103416.38;5033332;28;45387;-69
2022/01/28 11:50:07;;;;;;;;;24.75;14.75;;;;;9.31;68.25;103393.19;5045293;28;45440;-72
2022/01/28 11:52:39;;;;;;;;;15.25;13.00;;;;;9.34;67.72;103407.50;5052006;28;45466;-73
2022/01/28 11:55:14;;;;;;;;;24.00;16.25;;;;;9.37;66.96;103404.78;5052340;28;45540;-73
2022/01/28 11:57:53;;;;;;;;;20.25;14.00;;;;;9.32;66.90;103406.59;5052092;28;45415;-72
2022/01/28 12:00:20;;;;;;;;;22.25;18.75;;;;;9.25;66.58;103404.78;5055702;28;45432;-73
2022/01/28 12:02:48;;;;;;;;;23.50;21.50;;;;;9.30;66.52;103397.66;5051577;28;45319;-74
2022/01/28 12:05:31;;;;;;;;;22.75;18.25;;;;;9.29;66.93;103387.81;5048531;28;46371;-72
2022/01/28 12:08:00;;;;;;;;;23.50;18.50;;;;;9.30;66.96;103360.16;5052093;28;45409;-73
2022/01/28 12:10:27;;;;;;;;;26.75;21.25;;;;;9.38;66.57;103374.44;5038283;28;45434;-70
2022/01/28 12:13:00;;;;;;;;;26.00;19.75;;;;;9.35;66.32;103352.16;5052995;28;45423;-71
2022/01/28 12:15:56;;;;;;;;;22.25;14.00;;;;;9.45;66.12;103367.31;5055398;28;47504;-71
2022/01/28 12:18:22;;;;;;;;;15.75;14.25;;;;;9.43;66.28;103361.97;5054908;28;45526;-71
2022/01/28 12:20:48;;;;;;;;;25.50;20.75;;;;;9.39;66.41;103372.66;5024473;28;45318;-73
2022/01/28 12:23:13;;;;;;;;;18.75;16.00;;;;;9.43;66.44;103370.00;5048712;28;45220;-71
2022/01/28 12:25:42;;;;;;;;;24.75;20.50;;;;;9.53;66.35;103356.63;5049666;28;45439;-73
2022/01/28 12:28:40;;;;;;;;;19.75;15.00;;;;;9.53;66.01;103359.31;5049898;28;45443;-73
2022/01/28 12:31:12;;;;;;;;;20.50;20.50;;;;;9.45;66.50;103344.09;5041326;28;45363;-72
2022/01/28 12:33:45;;;;;;;;;22.75;21.25;;;;;9.45;66.28;103327.16;5044933;28;45474;-72
2022/01/28 12:36:21;;;;;;;;;24.50;20.50;;;;;9.48;65.96;103330.72;5043095;28;45473;-72
2022/01/28 12:39:08;;;;;;;;;27.25;18.75;;;;;9.45;65.62;103332.50;5025752;28;45442;-74
2022/01/28 12:41:50;;;;;;;;;23.00;19.75;;;;;9.48;66.31;103325.38;5036150;28;45434;-74
2022/01/28 12:44:16;;;;;;;;;21.25;16.25;;;;;9.47;66.01;103339.66;5037150;28;46395;-72
2022/01/28 12:46:48;;;;;;;;;20.50;16.50;;;;;9.51;65.77;103337.00;5040608;28;45518;-73
2022/01/28 12:49:14;;;;;;;;;16.25;16.00;;;;;9.52;66.05;103330.75;5032773;28;45556;-73
2022/01/28 12:51:40;;;;;;;;;24.00;21.25;;;;;9.47;66.02;103330.72;5033457;28;45594;-72
2022/01/28 12:54:06;;;;;;;;;20.25;17.00;;;;;9.48;66.28;103333.41;5025268;28;45529;-72
2022/01/28 12:56:40;;;;;;;;;24.75;18.25;;;;;9.55;65.66;103346.78;5041812;28;46146;-72
2022/01/28 12:59:06;;;;;;;;;21.25;18.75;;;;;9.61;66.22;103344.13;5034801;28;45565;-71
2022/01/28 13:01:32;;;;;;;;;20.75;20.25;;;;;9.64;65.81;103346.78;5052093;28;45392;-72
2022/01/28 13:04:13;;;;;;;;;26.00;20.75;;;;;9.63;66.16;103345.91;5043966;28;45546;-73
2022/01/28 13:09:32;;;;;;;;;25.25;21.50;;;;;9.40;65.84;103335.19;4994609;28;45508;-72
2022/01/28 13:12:02;;;;;;;;;22.75;18.00;;;;;9.53;66.13;103336.06;5055630;28;45335;-70
2022/01/28 13:14:30;;;;;;;;;26.00;21.00;;;;;9.49;66.33;103342.34;5041011;28;45411;-72
2022/01/28 13:16:56;;;;;;;;;17.75;15.75;;;;;9.46;66.14;103332.50;5044953;28;45590;-72
2022/01/28 13:19:22;;;;;;;;;22.50;18.50;;;;;9.30;66.47;103327.16;5044655;28;45461;-72
2022/01/28 13:21:49;;;;;;;;;19.50;18.75;;;;;9.41;66.39;103339.66;5054765;28;46005;-72
2022/01/28 13:24:20;;;;;;;;;23.25;17.00;;;;;9.45;66.12;103330.72;5045927;28;45239;-74
2022/01/28 13:26:57;;;;;;;;;21.00;17.50;;;;;9.42;66.09;103349.47;5055031;28;45475;-72
2022/01/28 13:29:33;;;;;;;;;25.00;22.00;;;;;9.36;66.50;103340.53;5043997;28;45462;-72
2022/01/28 13:32:10;;;;;;;;;33.00;24.50;;;;;9.21;66.08;103333.38;5037246;28;45304;-71
2022/01/28 13:34:52;;;;;;;;;27.25;21.50;;;;;9.29;66.61;103345.00;5041181;28;45379;-70
2022/01/28 13:37:44;;;;;;;;;23.25;20.00;;;;;9.35;66.36;103337.00;5052328;28;45256;-71
2022/01/28 13:40:23;;;;;;;;;30.00;22.25;;;;;9.37;66.66;103332.50;5050463;28;45500;-75
2022/01/28 13:43:04;;;;;;;;;25.25;22.25;;;;;9.30;66.35;103333.41;5055224;28;45441;-70
2022/01/28 13:45:42;;;;;;;;;27.00;22.00;;;;;9.31;66.50;103326.25;5046116;28;45471;-71
2022/01/28 13:48:15;;;;;;;;;26.50;22.75;;;;;9.31;66.13;103329.84;5035421;28;45269;-71
2022/01/28 13:50:43;;;;;;;;;23.50;17.50;;;;;9.30;66.57;103311.97;5041549;28;45275;-74
2022/01/28 13:55:44;;;;;;;;;25.00;21.50;;;;;9.26;66.38;103315.56;5054690;28;45483;-71
2022/01/28 13:58:09;;;;;;;;;24.25;20.25;;;;;9.29;66.46;103320.91;5039923;28;46123;-71
2022/01/28 14:00:54;;;;;;;;;22.25;19.25;;;;;9.14;66.33;103283.44;5040239;28;45363;-71
2022/01/28 14:03:21;;;;;;;;;22.00;18.00;;;;;9.30;66.57;103305.72;5034103;28;45351;-72
2022/01/28 14:05:58;;;;;;;;;21.00;19.50;;;;;9.26;66.47;103310.22;5045509;28;45397;-71
2022/01/28 14:08:46;;;;;;;;;22.50;21.25;;;;;9.20;66.79;103302.16;5034508;28;45450;-72
2022/01/28 14:11:22;;;;;;;;;25.25;18.50;;;;;9.25;66.93;103311.09;5049654;28;45464;-72
2022/01/28 14:14:08;;;;;;;;;20.00;18.50;;;;;9.14;66.38;103304.84;5049569;28;45463;-71
2022/01/28 14:16:34;;;;;;;;;28.75;17.00;;;;;9.21;67.01;103303.94;5053080;28;45297;-71
2022/01/28 14:19:00;;;;;;;;;22.00;19.00;;;;;9.20;66.87;103315.53;5048136;28;46236;-72
2022/01/28 14:21:25;;;;;;;;;22.50;19.00;;;;;9.19;66.79;103323.56;5050357;28;45435;-72
2022/01/28 14:23:51;;;;;;;;;23.50;17.75;;;;;9.17;66.50;103303.97;5042704;28;45490;-75
2022/01/28 14:26:17;;;;;;;;;29.00;20.50;;;;;9.20;66.56;103299.47;5054204;28;45431;-74
2022/01/28 14:31:25;;;;;;;;;23.75;18.50;;;;;9.15;66.00;103287.91;5030487;28;45532;-73
2022/01/28 14:33:50;;;;;;;;;19.50;18.25;;;;;9.17;66.27;103302.19;5050638;28;45488;-72
2022/01/28 14:36:17;;;;;;;;;26.00;22.75;;;;;9.15;66.16;103297.72;5042395;28;45512;-73
2022/01/28 14:38:45;;;;;;;;;21.25;17.25;;;;;9.21;66.16;103311.09;5051717;28;46071;-73
2022/01/28 14:41:12;;;;;;;;;24.50;20.00;;;;;9.13;66.40;103292.34;5035338;28;45330;-70
2022/01/28 14:43:39;;;;;;;;;20.50;17.75;;;;;9.20;66.17;103291.44;5034512;28;45289;-71
2022/01/28 14:46:04;;;;;;;;;27.00;16.00;;;;;9.27;66.26;103298.59;5024703;28;46639;-71
2022/01/28 14:48:34;;;;;;;;;18.00;15.25;;;;;9.31;65.89;103281.66;5039854;28;45427;-71
2022/01/28 14:50:59;;;;;;;;;20.25;16.25;;;;;9.28;65.73;103275.38;5032312;28;45378;-71
2022/01/28 14:53:24;;;;;;;;;23.25;12.50;;;;;9.31;65.22;103276.28;5054190;28;45399;-71
2022/01/28 14:55:50;;;;;;;;;22.00;16.50;;;;;9.28;65.01;103262.91;5043810;28;45458;-74
2022/01/28 14:58:15;;;;;;;;;17.75;16.50;;;;;9.34;64.23;103278.09;5054018;28;46323;-71
2022/01/28 15:00:41;;;;;;;;;17.25;16.50;;;;;9.29;65.30;103264.69;5045074;28;45205;-70
2022/01/28 15:03:09;;;;;;;;;20.75;13.25;;;;;9.25;64.35;103249.53;5053618;28;45534;-71
2022/01/28 15:05:36;;;;;;;;;15.75;14.50;;;;;9.24;64.93;103255.78;5037395;28;45572;-72
2022/01/28 15:08:07;;;;;;;;;15.00;12.25;;;;;9.30;64.93;103257.56;5049647;28;46143;-72
2022/01/28 15:10:32;;;;;;;;;16.25;16.00;;;;;8.99;64.59;103241.50;5038501;28;45866;-71
2022/01/28 15:12:58;;;;;;;;;23.75;14.50;;;;;9.09;65.07;103266.50;5036367;28;45638;-73
2022/01/28 15:15:23;;;;;;;;;14.50;12.00;;;;;8.99;65.15;103246.84;5048583;28;46277;-73
2022/01/28 15:17:48;;;;;;;;;22.25;15.25;;;;;9.15;65.03;103270.94;5053666;28;45209;-73
2022/01/28 15:20:14;;;;;;;;;18.00;15.00;;;;;9.13;64.67;103276.28;5048963;28;45381;-70
2022/01/28 15:22:39;;;;;;;;;19.25;15.00;;;;;9.12;64.63;103266.47;5033520;28;46019;-71
2022/01/28 15:25:05;;;;;;;;;14.00;11.25;;;;;9.20;64.88;103264.69;5041422;28;45439;-72
2022/01/28 15:27:32;;;;;;;;;19.25;16.50;;;;;9.29;64.38;103269.16;5040869;28;45677;-70
2022/01/28 15:30:05;;;;;;;;;18.00;13.00;;;;;9.32;64.30;103279.88;5036531;28;45702;-72
2022/01/28 15:37:46;;;;;;;;;16.75;16.75;;;;;9.46;63.58;103251.28;5042199;28;46192;-71
2022/01/28 15:40:12;;;;;;;;;11.50;10.75;;;;;9.53;64.25;103249.53;5046271;28;45512;-72
2022/01/28 15:42:37;;;;;;;;;21.00;16.25;;;;;9.59;63.66;103260.22;5055923;28;45395;-70
2022/01/28 15:45:03;;;;;;;;;17.00;16.00;;;;;9.39;63.35;103209.34;5047545;28;45284;-72
2022/01/28 15:47:28;;;;;;;;;20.25;15.25;;;;;9.53;63.54;103234.31;5048208;28;46088;-74
2022/01/28 15:49:54;;;;;;;;;17.25;16.25;;;;;9.56;63.46;103249.50;5042575;28;45342;-73
2022/01/28 15:52:19;;;;;;;;;18.25;17.00;;;;;9.54;63.32;103229.84;5056605;28;45345;-71
2022/01/28 15:54:45;;;;;;;;;21.75;17.00;;;;;9.59;63.28;103246.81;5050819;28;45606;-73
2022/01/28 15:57:10;;;;;;;;;16.00;12.25;;;;;9.57;63.41;103244.13;5042543;28;45547;-73
2022/01/28 15:59:36;;;;;;;;;16.75;15.25;;;;;9.58;63.58;103243.25;5051152;28;45488;-71
2022/01/28 16:02:02;;;;;;;;;16.25;15.25;;;;;9.54;63.67;103229.84;5055137;28;45536;-71
2022/01/28 16:04:27;;;;;;;;;19.50;15.00;;;;;9.54;64.03;103238.78;5052541;28;45478;-72
2022/01/28 16:06:53;;;;;;;;;24.00;17.75;;;;;9.56;63.94;103238.78;5046064;28;45338;-68
2022/01/28 16:09:19;;;;;;;;;29.25;23.00;;;;;9.56;64.61;103237.00;5053542;28;45477;-73
2022/01/28 16:11:53;;;;;;;;;20.25;19.25;;;;;9.44;64.69;103208.44;5055664;28;45671;-71
2022/01/28 16:14:32;;;;;;;;;27.25;24.25;;;;;9.55;65.01;103226.28;5056190;28;46049;-71
2022/01/28 16:17:23;;;;;;;;;24.50;21.00;;;;;9.61;65.50;103243.22;5033813;28;45437;-71
2022/01/28 16:19:49;;;;;;;;;32.75;24.00;;;;;9.49;65.61;103217.38;5056310;28;45460;-72
2022/01/28 16:22:15;;;;;;;;;27.50;19.50;;;;;9.54;65.52;103245.91;5056042;28;45311;-73
2022/01/28 16:24:40;;;;;;;;;23.50;21.50;;;;;9.51;65.55;103249.50;5051374;28;45528;-74
2022/01/28 16:27:06;;;;;;;;;29.00;23.00;;;;;9.48;65.74;103246.81;5053813;28;46165;-73
2022/01/28 16:29:31;;;;;;;;;28.75;23.75;;;;;9.41;65.97;103245.94;5036124;28;45587;-72
2022/01/28 16:31:58;;;;;;;;;29.25;23.75;;;;;9.41;65.96;103247.75;5047982;28;45157;-74
2022/01/28 16:34:23;;;;;;;;;32.00;28.25;;;;;9.19;66.28;103221.84;5056201;28;45600;-74
2022/01/28 16:36:50;;;;;;;;;21.50;21.50;;;;;9.32;66.12;103259.34;5056221;28;45264;-72
2022/01/28 16:39:16;;;;;;;;;37.25;27.25;;;;;9.31;66.39;103253.97;5054959;28;45502;-71
2022/01/28 16:41:43;;;;;;;;;31.50;28.25;;;;;9.30;66.42;103253.09;5055845;28;45433;-72
2022/01/28 16:44:13;;;;;;;;;31.75;23.50;;;;;9.28;66.17;103251.28;5055690;28;45532;-72
2022/01/28 16:46:40;;;;;;;;;34.25;24.75;;;;;9.28;66.54;103259.31;5052381;28;46089;-74
2022/01/28 16:49:08;;;;;;;;;28.00;22.00;;;;;9.25;66.49;103252.22;5029343;28;45928;-76
2022/01/28 16:51:34;;;;;;;;;37.50;30.25;;;;;9.19;66.93;103237.91;5056194;28;45451;-76
2022/01/28 16:54:00;;;;;;;;;40.00;34.00;;;;;9.27;67.18;103260.25;5056006;28;45544;-75
2022/01/28 16:56:26;;;;;;;;;33.25;23.75;;;;;9.21;67.05;103253.09;5055715;28;45466;-75
2022/01/28 16:58:52;;;;;;;;;34.75;30.50;;;;;9.22;67.27;103267.38;5056059;28;45327;-70
2022/01/28 17:01:18;;;;;;;;;35.25;30.25;;;;;9.21;66.76;103279.84;5056046;28;45446;-71
2022/01/28 17:03:44;;;;;;;;;38.00;29.50;;;;;9.16;66.91;103288.78;5056140;28;45485;-73
2022/01/28 17:06:10;;;;;;;;;33.00;25.00;;;;;9.00;67.38;103274.50;5055727;28;45388;-71
2022/01/28 17:08:37;;;;;;;;;31.75;27.25;;;;;9.07;67.70;103290.56;5055832;28;45407;-71
2022/01/28 17:13:44;;;;;;;;;37.75;33.25;;;;;9.01;67.62;103303.06;5055696;28;45219;-72
2022/01/28 17:16:10;;;;;;;;;33.25;27.50;;;;;8.96;67.86;103278.06;5055522;28;46374;-72
2022/01/28 17:18:36;;;;;;;;;38.00;29.25;;;;;9.10;67.48;103295.03;5056047;28;45334;-72